sensor_id;sensor_type;location;lat;lon;timestamp;P1;durP1;ratioP1;P2;durP2;ratioP2
39612;SDS011;25303;48.896;13.342;2022-10-16T00:02:24;5.30;;;3.85;;
39612;SDS011;25303;48.896;13.342;2022-10-16T00:05:07;6.47;;;4.28;;
39612;SDS011;25303;48.896;13.342;2022-10-16T00:07:50;4.28;;;3.10;;
39612;SDS011;25303;48.896;13.342;2022-10-16T00:10:34;4.30;;;3.20;;
39612;SDS011;25303;48.896;13.342;2022-10-16T00:13:17;3.67;;;2.80;;
39612;SDS011;25303;48.896;13.342;2022-10-16T00:16:02;3.70;;;2.97;;
39612;SDS011;25303;48.896;13.342;2022-10-16T00:18:46;3.60;;;2.80;;
39612;SDS011;25303;48.896;13.342;2022-10-16T00:21:31;3.55;;;2.83;;
39612;SDS011;25303;48.896;13.342;2022-10-16T00:24:15;4.63;;;3.35;;
39612;SDS011;25303;48.896;13.342;2022-10-16T00:26:59;3.50;;;2.63;;
39612;SDS011;25303;48.896;13.342;2022-10-16T00:29:42;4.45;;;2.50;;
39612;SDS011;25303;48.896;13.342;2022-10-16T00:32:26;4.90;;;4.07;;
39612;SDS011;25303;48.896;13.342;2022-10-16T00:35:09;4.63;;;3.10;;
39612;SDS011;25303;48.896;13.342;2022-10-16T00:37:52;5.05;;;3.25;;
39612;SDS011;25303;48.896;13.342;2022-10-16T00:40:35;4.28;;;2.83;;
39612;SDS011;25303;48.896;13.342;2022-10-16T00:46:19;5.00;;;3.50;;
39612;SDS011;25303;48.896;13.342;2022-10-16T00:49:05;4.40;;;3.42;;
39612;SDS011;25303;48.896;13.342;2022-10-16T00:51:51;4.78;;;3.90;;
39612;SDS011;25303;48.896;13.342;2022-10-16T00:54:35;5.63;;;3.58;;
39612;SDS011;25303;48.896;13.342;2022-10-16T00:57:19;4.70;;;3.40;;
39612;SDS011;25303;48.896;13.342;2022-10-16T01:00:04;3.60;;;2.72;;
39612;SDS011;25303;48.896;13.342;2022-10-16T01:02:52;3.08;;;2.35;;
39612;SDS011;25303;48.896;13.342;2022-10-16T01:05:37;4.18;;;3.33;;
39612;SDS011;25303;48.896;13.342;2022-10-16T01:08:27;4.32;;;3.05;;
39612;SDS011;25303;48.896;13.342;2022-10-16T01:11:17;4.65;;;3.40;;
39612;SDS011;25303;48.896;13.342;2022-10-16T01:14:09;4.63;;;3.83;;
39612;SDS011;25303;48.896;13.342;2022-10-16T01:17:01;5.03;;;3.47;;
39612;SDS011;25303;48.896;13.342;2022-10-16T01:20:03;6.57;;;3.33;;
39612;SDS011;25303;48.896;13.342;2022-10-16T01:23:05;3.38;;;2.63;;
39612;SDS011;25303;48.896;13.342;2022-10-16T01:25:55;4.43;;;3.05;;
39612;SDS011;25303;48.896;13.342;2022-10-16T01:29:05;2.28;;;2.05;;
39612;SDS011;25303;48.896;13.342;2022-10-16T01:31:56;4.70;;;2.53;;
39612;SDS011;25303;48.896;13.342;2022-10-16T01:34:44;3.05;;;2.30;;
39612;SDS011;25303;48.896;13.342;2022-10-16T01:37:32;5.57;;;3.65;;
39612;SDS011;25303;48.896;13.342;2022-10-16T01:40:21;5.03;;;3.78;;
39612;SDS011;25303;48.896;13.342;2022-10-16T01:43:10;4.47;;;3.55;;
39612;SDS011;25303;48.896;13.342;2022-10-16T01:45:59;5.07;;;3.45;;
39612;SDS011;25303;48.896;13.342;2022-10-16T01:48:43;4.07;;;3.38;;
39612;SDS011;25303;48.896;13.342;2022-10-16T01:51:27;5.15;;;3.45;;
39612;SDS011;25303;48.896;13.342;2022-10-16T01:56:56;4.50;;;2.83;;
39612;SDS011;25303;48.896;13.342;2022-10-16T01:59:42;4.25;;;3.30;;
39612;SDS011;25303;48.896;13.342;2022-10-16T02:02:29;4.72;;;3.47;;
39612;SDS011;25303;48.896;13.342;2022-10-16T02:05:15;5.05;;;2.85;;
39612;SDS011;25303;48.896;13.342;2022-10-16T02:08:03;4.05;;;2.33;;
39612;SDS011;25303;48.896;13.342;2022-10-16T02:10:46;5.10;;;3.40;;
39612;SDS011;25303;48.896;13.342;2022-10-16T02:13:30;4.88;;;3.17;;
39612;SDS011;25303;48.896;13.342;2022-10-16T02:16:15;4.05;;;2.85;;
39612;SDS011;25303;48.896;13.342;2022-10-16T02:18:59;3.97;;;2.67;;
39612;SDS011;25303;48.896;13.342;2022-10-16T02:21:44;3.85;;;3.00;;
39612;SDS011;25303;48.896;13.342;2022-10-16T02:24:33;7.57;;;2.65;;
39612;SDS011;25303;48.896;13.342;2022-10-16T02:27:22;15.75;;;4.20;;
39612;SDS011;25303;48.896;13.342;2022-10-16T02:30:13;4.22;;;2.70;;
39612;SDS011;25303;48.896;13.342;2022-10-16T02:33:01;4.20;;;3.15;;
39612;SDS011;25303;48.896;13.342;2022-10-16T02:35:48;4.57;;;3.70;;
39612;SDS011;25303;48.896;13.342;2022-10-16T02:38:33;5.47;;;4.03;;
39612;SDS011;25303;48.896;13.342;2022-10-16T02:41:18;4.28;;;3.42;;
39612;SDS011;25303;48.896;13.342;2022-10-16T02:44:01;5.95;;;3.72;;
39612;SDS011;25303;48.896;13.342;2022-10-16T02:46:43;4.47;;;3.22;;
39612;SDS011;25303;48.896;13.342;2022-10-16T02:49:27;5.60;;;4.32;;
39612;SDS011;25303;48.896;13.342;2022-10-16T02:52:11;5.88;;;4.03;;
39612;SDS011;25303;48.896;13.342;2022-10-16T02:54:54;5.47;;;3.53;;
39612;SDS011;25303;48.896;13.342;2022-10-16T02:57:37;7.05;;;4.00;;
39612;SDS011;25303;48.896;13.342;2022-10-16T03:00:21;4.88;;;3.20;;
39612;SDS011;25303;48.896;13.342;2022-10-16T03:03:04;4.60;;;3.25;;
39612;SDS011;25303;48.896;13.342;2022-10-16T03:05:47;3.42;;;2.72;;
39612;SDS011;25303;48.896;13.342;2022-10-16T03:08:31;2.40;;;2.10;;
39612;SDS011;25303;48.896;13.342;2022-10-16T03:11:14;3.78;;;2.20;;
39612;SDS011;25303;48.896;13.342;2022-10-16T03:13:57;3.10;;;2.33;;
39612;SDS011;25303;48.896;13.342;2022-10-16T03:16:40;3.72;;;2.50;;
39612;SDS011;25303;48.896;13.342;2022-10-16T03:19:23;3.35;;;2.40;;
39612;SDS011;25303;48.896;13.342;2022-10-16T03:22:06;3.80;;;2.20;;
39612;SDS011;25303;48.896;13.342;2022-10-16T03:24:51;4.28;;;2.67;;
39612;SDS011;25303;48.896;13.342;2022-10-16T03:27:34;5.38;;;2.80;;
39612;SDS011;25303;48.896;13.342;2022-10-16T03:30:16;3.55;;;2.38;;
39612;SDS011;25303;48.896;13.342;2022-10-16T03:33:00;4.07;;;2.95;;
39612;SDS011;25303;48.896;13.342;2022-10-16T03:35:43;3.70;;;2.67;;
39612;SDS011;25303;48.896;13.342;2022-10-16T03:38:33;3.97;;;2.88;;
39612;SDS011;25303;48.896;13.342;2022-10-16T03:41:18;4.95;;;3.15;;
39612;SDS011;25303;48.896;13.342;2022-10-16T03:44:00;4.03;;;3.20;;
39612;SDS011;25303;48.896;13.342;2022-10-16T03:46:43;3.60;;;3.03;;
39612;SDS011;25303;48.896;13.342;2022-10-16T03:49:26;6.72;;;4.68;;
39612;SDS011;25303;48.896;13.342;2022-10-16T03:52:09;6.97;;;4.05;;
39612;SDS011;25303;48.896;13.342;2022-10-16T03:54:52;5.20;;;3.90;;
39612;SDS011;25303;48.896;13.342;2022-10-16T03:57:36;5.63;;;3.20;;
39612;SDS011;25303;48.896;13.342;2022-10-16T04:00:19;3.50;;;3.20;;
39612;SDS011;25303;48.896;13.342;2022-10-16T04:03:02;5.28;;;3.17;;
39612;SDS011;25303;48.896;13.342;2022-10-16T04:05:45;4.22;;;3.13;;
39612;SDS011;25303;48.896;13.342;2022-10-16T04:08:27;6.90;;;3.30;;
39612;SDS011;25303;48.896;13.342;2022-10-16T04:11:10;4.25;;;3.03;;
39612;SDS011;25303;48.896;13.342;2022-10-16T04:13:55;8.48;;;3.30;;
39612;SDS011;25303;48.896;13.342;2022-10-16T04:16:38;5.22;;;3.17;;
39612;SDS011;25303;48.896;13.342;2022-10-16T04:19:20;7.15;;;3.17;;
39612;SDS011;25303;48.896;13.342;2022-10-16T04:22:03;2.70;;;2.42;;
39612;SDS011;25303;48.896;13.342;2022-10-16T04:24:46;6.18;;;2.55;;
39612;SDS011;25303;48.896;13.342;2022-10-16T04:27:29;3.28;;;2.42;;
39612;SDS011;25303;48.896;13.342;2022-10-16T04:30:14;4.30;;;2.38;;
39612;SDS011;25303;48.896;13.342;2022-10-16T04:32:57;4.28;;;2.20;;
39612;SDS011;25303;48.896;13.342;2022-10-16T04:35:43;3.92;;;2.15;;
39612;SDS011;25303;48.896;13.342;2022-10-16T04:38:26;2.05;;;1.85;;
39612;SDS011;25303;48.896;13.342;2022-10-16T04:41:09;3.03;;;2.08;;
39612;SDS011;25303;48.896;13.342;2022-10-16T04:43:52;3.35;;;2.80;;
39612;SDS011;25303;48.896;13.342;2022-10-16T04:46:36;3.95;;;2.42;;
39612;SDS011;25303;48.896;13.342;2022-10-16T04:49:19;7.28;;;1.95;;
39612;SDS011;25303;48.896;13.342;2022-10-16T04:52:02;1.95;;;1.58;;
39612;SDS011;25303;48.896;13.342;2022-10-16T04:54:45;4.30;;;1.45;;
39612;SDS011;25303;48.896;13.342;2022-10-16T04:57:28;8.10;;;1.75;;
39612;SDS011;25303;48.896;13.342;2022-10-16T05:00:12;2.80;;;2.05;;
39612;SDS011;25303;48.896;13.342;2022-10-16T05:02:56;7.00;;;2.17;;
39612;SDS011;25303;48.896;13.342;2022-10-16T05:05:42;2.50;;;1.65;;
39612;SDS011;25303;48.896;13.342;2022-10-16T05:08:26;4.63;;;1.77;;
39612;SDS011;25303;48.896;13.342;2022-10-16T05:11:09;3.75;;;1.70;;
39612;SDS011;25303;48.896;13.342;2022-10-16T05:13:52;4.00;;;2.15;;
39612;SDS011;25303;48.896;13.342;2022-10-16T05:16:36;3.30;;;2.28;;
39612;SDS011;25303;48.896;13.342;2022-10-16T05:19:20;4.30;;;2.70;;
39612;SDS011;25303;48.896;13.342;2022-10-16T05:22:08;6.22;;;2.90;;
39612;SDS011;25303;48.896;13.342;2022-10-16T05:24:51;4.82;;;3.17;;
39612;SDS011;25303;48.896;13.342;2022-10-16T05:27:34;4.68;;;3.15;;
39612;SDS011;25303;48.896;13.342;2022-10-16T05:30:17;6.90;;;3.58;;
39612;SDS011;25303;48.896;13.342;2022-10-16T05:33:01;4.70;;;3.07;;
39612;SDS011;25303;48.896;13.342;2022-10-16T05:35:45;17.90;;;3.22;;
39612;SDS011;25303;48.896;13.342;2022-10-16T05:38:28;5.28;;;2.78;;
39612;SDS011;25303;48.896;13.342;2022-10-16T05:41:11;3.67;;;2.72;;
39612;SDS011;25303;48.896;13.342;2022-10-16T05:43:54;4.57;;;2.88;;
39612;SDS011;25303;48.896;13.342;2022-10-16T05:46:37;4.50;;;2.58;;
39612;SDS011;25303;48.896;13.342;2022-10-16T05:49:20;2.35;;;2.15;;
39612;SDS011;25303;48.896;13.342;2022-10-16T05:52:04;1.80;;;1.60;;
39612;SDS011;25303;48.896;13.342;2022-10-16T05:54:47;2.63;;;2.13;;
39612;SDS011;25303;48.896;13.342;2022-10-16T05:57:31;3.92;;;2.83;;
39612;SDS011;25303;48.896;13.342;2022-10-16T06:00:14;10.13;;;3.03;;
39612;SDS011;25303;48.896;13.342;2022-10-16T06:02:56;7.30;;;2.92;;
39612;SDS011;25303;48.896;13.342;2022-10-16T06:05:39;7.80;;;2.75;;
39612;SDS011;25303;48.896;13.342;2022-10-16T06:08:25;5.95;;;2.35;;
39612;SDS011;25303;48.896;13.342;2022-10-16T06:11:09;8.93;;;2.67;;
39612;SDS011;25303;48.896;13.342;2022-10-16T06:13:56;4.38;;;3.00;;
39612;SDS011;25303;48.896;13.342;2022-10-16T06:16:42;6.90;;;3.05;;
39612;SDS011;25303;48.896;13.342;2022-10-16T06:19:25;3.67;;;2.50;;
39612;SDS011;25303;48.896;13.342;2022-10-16T06:22:08;3.90;;;2.97;;
39612;SDS011;25303;48.896;13.342;2022-10-16T06:24:52;4.75;;;3.08;;
39612;SDS011;25303;48.896;13.342;2022-10-16T06:27:35;5.22;;;3.00;;
39612;SDS011;25303;48.896;13.342;2022-10-16T06:30:18;5.38;;;2.92;;
39612;SDS011;25303;48.896;13.342;2022-10-16T06:33:01;4.13;;;2.92;;
39612;SDS011;25303;48.896;13.342;2022-10-16T06:35:44;5.47;;;3.05;;
39612;SDS011;25303;48.896;13.342;2022-10-16T06:38:27;6.85;;;2.97;;
39612;SDS011;25303;48.896;13.342;2022-10-16T06:41:12;3.95;;;2.45;;
39612;SDS011;25303;48.896;13.342;2022-10-16T06:43:56;4.53;;;2.95;;
39612;SDS011;25303;48.896;13.342;2022-10-16T06:46:39;4.32;;;3.10;;
39612;SDS011;25303;48.896;13.342;2022-10-16T06:49:22;5.82;;;3.33;;
39612;SDS011;25303;48.896;13.342;2022-10-16T06:52:05;6.05;;;3.10;;
39612;SDS011;25303;48.896;13.342;2022-10-16T06:54:49;5.65;;;3.33;;
39612;SDS011;25303;48.896;13.342;2022-10-16T06:57:33;6.32;;;3.90;;
39612;SDS011;25303;48.896;13.342;2022-10-16T07:00:16;5.10;;;3.53;;
39612;SDS011;25303;48.896;13.342;2022-10-16T07:02:59;7.15;;;3.92;;
39612;SDS011;25303;48.896;13.342;2022-10-16T07:05:42;6.43;;;3.88;;
39612;SDS011;25303;48.896;13.342;2022-10-16T07:08:25;6.38;;;3.85;;
39612;SDS011;25303;48.896;13.342;2022-10-16T07:11:09;6.28;;;4.00;;
39612;SDS011;25303;48.896;13.342;2022-10-16T07:13:55;5.20;;;3.42;;
39612;SDS011;25303;48.896;13.342;2022-10-16T07:16:38;4.95;;;3.42;;
39612;SDS011;25303;48.896;13.342;2022-10-16T07:19:21;4.25;;;3.25;;
39612;SDS011;25303;48.896;13.342;2022-10-16T07:22:04;5.30;;;3.47;;
39612;SDS011;25303;48.896;13.342;2022-10-16T07:24:46;5.43;;;3.30;;
39612;SDS011;25303;48.896;13.342;2022-10-16T07:27:33;5.07;;;3.15;;
39612;SDS011;25303;48.896;13.342;2022-10-16T07:30:22;5.05;;;3.20;;
39612;SDS011;25303;48.896;13.342;2022-10-16T07:33:05;4.57;;;3.00;;
39612;SDS011;25303;48.896;13.342;2022-10-16T07:35:49;4.13;;;3.38;;
39612;SDS011;25303;48.896;13.342;2022-10-16T07:38:32;4.00;;;2.78;;
39612;SDS011;25303;48.896;13.342;2022-10-16T07:41:17;4.40;;;3.10;;
39612;SDS011;25303;48.896;13.342;2022-10-16T07:44:01;4.93;;;3.20;;
39612;SDS011;25303;48.896;13.342;2022-10-16T07:46:45;3.63;;;2.70;;
39612;SDS011;25303;48.896;13.342;2022-10-16T07:52:11;2.83;;;1.90;;
39612;SDS011;25303;48.896;13.342;2022-10-16T07:54:54;6.50;;;4.40;;
39612;SDS011;25303;48.896;13.342;2022-10-16T07:57:37;7.90;;;4.25;;
39612;SDS011;25303;48.896;13.342;2022-10-16T08:00:20;4.18;;;2.97;;
39612;SDS011;25303;48.896;13.342;2022-10-16T08:03:04;4.47;;;2.83;;
39612;SDS011;25303;48.896;13.342;2022-10-16T08:05:47;5.60;;;2.50;;
39612;SDS011;25303;48.896;13.342;2022-10-16T08:08:30;2.85;;;2.25;;
39612;SDS011;25303;48.896;13.342;2022-10-16T08:11:13;4.28;;;2.22;;
39612;SDS011;25303;48.896;13.342;2022-10-16T08:13:56;3.42;;;2.10;;
39612;SDS011;25303;48.896;13.342;2022-10-16T08:16:39;3.33;;;2.45;;
39612;SDS011;25303;48.896;13.342;2022-10-16T08:19:24;3.65;;;2.13;;
39612;SDS011;25303;48.896;13.342;2022-10-16T08:22:06;3.25;;;2.30;;
39612;SDS011;25303;48.896;13.342;2022-10-16T08:24:49;5.95;;;2.00;;
39612;SDS011;25303;48.896;13.342;2022-10-16T08:27:32;4.50;;;2.10;;
39612;SDS011;25303;48.896;13.342;2022-10-16T08:30:16;3.28;;;2.10;;
39612;SDS011;25303;48.896;13.342;2022-10-16T08:32:59;4.03;;;2.40;;
39612;SDS011;25303;48.896;13.342;2022-10-16T08:35:49;3.53;;;2.53;;
39612;SDS011;25303;48.896;13.342;2022-10-16T08:38:34;4.03;;;2.65;;
39612;SDS011;25303;48.896;13.342;2022-10-16T08:41:26;4.47;;;2.42;;
39612;SDS011;25303;48.896;13.342;2022-10-16T08:47:44;5.50;;;2.85;;
39612;SDS011;25303;48.896;13.342;2022-10-16T08:50:32;4.70;;;2.58;;
39612;SDS011;25303;48.896;13.342;2022-10-16T08:53:21;4.13;;;2.85;;
39612;SDS011;25303;48.896;13.342;2022-10-16T08:56:07;4.22;;;2.42;;
39612;SDS011;25303;48.896;13.342;2022-10-16T08:58:51;4.82;;;2.42;;
39612;SDS011;25303;48.896;13.342;2022-10-16T09:01:43;3.50;;;2.33;;
39612;SDS011;25303;48.896;13.342;2022-10-16T09:07:39;1.90;;;1.55;;
39612;SDS011;25303;48.896;13.342;2022-10-16T09:10:36;2.58;;;1.60;;
39612;SDS011;25303;48.896;13.342;2022-10-16T09:13:26;3.95;;;1.88;;
39612;SDS011;25303;48.896;13.342;2022-10-16T09:16:14;3.00;;;1.45;;
39612;SDS011;25303;48.896;13.342;2022-10-16T09:19:03;1.90;;;1.10;;
39612;SDS011;25303;48.896;13.342;2022-10-16T09:21:55;2.17;;;1.13;;
39612;SDS011;25303;48.896;13.342;2022-10-16T09:24:38;2.55;;;1.10;;
39612;SDS011;25303;48.896;13.342;2022-10-16T09:27:23;3.75;;;1.40;;
39612;SDS011;25303;48.896;13.342;2022-10-16T09:32:53;1.73;;;0.93;;
39612;SDS011;25303;48.896;13.342;2022-10-16T09:35:40;1.33;;;1.00;;
39612;SDS011;25303;48.896;13.342;2022-10-16T09:38:26;2.80;;;0.80;;
39612;SDS011;25303;48.896;13.342;2022-10-16T09:41:13;1.10;;;0.70;;
39612;SDS011;25303;48.896;13.342;2022-10-16T09:44:02;1.63;;;0.98;;
39612;SDS011;25303;48.896;13.342;2022-10-16T09:46:47;1.23;;;0.82;;
39612;SDS011;25303;48.896;13.342;2022-10-16T09:49:30;1.42;;;1.08;;
39612;SDS011;25303;48.896;13.342;2022-10-16T09:52:14;1.02;;;0.70;;
39612;SDS011;25303;48.896;13.342;2022-10-16T09:54:58;1.52;;;1.00;;
39612;SDS011;25303;48.896;13.342;2022-10-16T10:00:32;1.55;;;1.00;;
39612;SDS011;25303;48.896;13.342;2022-10-16T10:03:15;1.17;;;0.80;;
39612;SDS011;25303;48.896;13.342;2022-10-16T10:06:20;1.00;;;0.90;;
39612;SDS011;25303;48.896;13.342;2022-10-16T10:09:06;1.20;;;0.70;;
39612;SDS011;25303;48.896;13.342;2022-10-16T10:12:00;2.60;;;0.80;;
39612;SDS011;25303;48.896;13.342;2022-10-16T10:14:50;1.90;;;0.77;;
39612;SDS011;25303;48.896;13.342;2022-10-16T10:17:46;4.20;;;0.70;;
39612;SDS011;25303;48.896;13.342;2022-10-16T10:20:35;1.40;;;0.70;;
39612;SDS011;25303;48.896;13.342;2022-10-16T10:23:20;2.58;;;0.70;;
39612;SDS011;25303;48.896;13.342;2022-10-16T10:26:05;1.83;;;0.70;;
39612;SDS011;25303;48.896;13.342;2022-10-16T10:28:55;1.45;;;0.65;;
39612;SDS011;25303;48.896;13.342;2022-10-16T10:31:47;0.77;;;0.60;;
39612;SDS011;25303;48.896;13.342;2022-10-16T10:34:45;2.67;;;0.50;;
39612;SDS011;25303;48.896;13.342;2022-10-16T10:37:52;0.88;;;0.50;;
39612;SDS011;25303;48.896;13.342;2022-10-16T10:40:46;3.28;;;0.60;;
39612;SDS011;25303;48.896;13.342;2022-10-16T10:43:39;1.08;;;0.60;;
39612;SDS011;25303;48.896;13.342;2022-10-16T10:46:32;0.80;;;0.57;;
39612;SDS011;25303;48.896;13.342;2022-10-16T10:49:25;1.58;;;0.80;;
39612;SDS011;25303;48.896;13.342;2022-10-16T10:52:27;0.82;;;0.70;;
39612;SDS011;25303;48.896;13.342;2022-10-16T10:55:22;1.15;;;0.70;;
39612;SDS011;25303;48.896;13.342;2022-10-16T10:58:15;1.00;;;0.60;;
39612;SDS011;25303;48.896;13.342;2022-10-16T11:01:17;1.33;;;0.50;;
39612;SDS011;25303;48.896;13.342;2022-10-16T11:04:14;1.17;;;0.73;;
39612;SDS011;25303;48.896;13.342;2022-10-16T11:07:11;0.73;;;0.60;;
39612;SDS011;25303;48.896;13.342;2022-10-16T11:10:03;0.60;;;0.40;;
39612;SDS011;25303;48.896;13.342;2022-10-16T11:12:57;0.63;;;0.50;;
39612;SDS011;25303;48.896;13.342;2022-10-16T11:15:58;0.55;;;0.50;;
39612;SDS011;25303;48.896;13.342;2022-10-16T11:18:47;2.20;;;0.70;;
39612;SDS011;25303;48.896;13.342;2022-10-16T11:21:36;2.95;;;1.00;;
39612;SDS011;25303;48.896;13.342;2022-10-16T11:24:29;0.88;;;0.70;;
39612;SDS011;25303;48.896;13.342;2022-10-16T11:27:27;0.60;;;0.60;;
39612;SDS011;25303;48.896;13.342;2022-10-16T11:30:18;2.33;;;0.40;;
39612;SDS011;25303;48.896;13.342;2022-10-16T11:33:05;1.52;;;0.50;;
39612;SDS011;25303;48.896;13.342;2022-10-16T11:36:03;3.42;;;0.93;;
39612;SDS011;25303;48.896;13.342;2022-10-16T11:38:55;1.83;;;0.88;;
39612;SDS011;25303;48.896;13.342;2022-10-16T11:41:43;2.63;;;1.02;;
39612;SDS011;25303;48.896;13.342;2022-10-16T11:44:41;1.65;;;1.08;;
39612;SDS011;25303;48.896;13.342;2022-10-16T11:47:31;1.00;;;0.60;;
39612;SDS011;25303;48.896;13.342;2022-10-16T11:50:38;1.42;;;0.80;;
39612;SDS011;25303;48.896;13.342;2022-10-16T11:53:34;1.10;;;0.60;;
39612;SDS011;25303;48.896;13.342;2022-10-16T11:56:23;1.73;;;0.60;;
39612;SDS011;25303;48.896;13.342;2022-10-16T11:59:07;2.25;;;0.70;;
39612;SDS011;25303;48.896;13.342;2022-10-16T12:02:04;0.60;;;0.60;;
39612;SDS011;25303;48.896;13.342;2022-10-16T12:05:17;1.38;;;0.60;;
39612;SDS011;25303;48.896;13.342;2022-10-16T12:08:08;2.22;;;0.50;;
39612;SDS011;25303;48.896;13.342;2022-10-16T12:10:53;1.52;;;0.70;;
39612;SDS011;25303;48.896;13.342;2022-10-16T12:13:49;0.80;;;0.60;;
39612;SDS011;25303;48.896;13.342;2022-10-16T12:16:33;1.58;;;0.65;;
39612;SDS011;25303;48.896;13.342;2022-10-16T12:19:18;1.50;;;0.85;;
39612;SDS011;25303;48.896;13.342;2022-10-16T12:22:01;2.33;;;0.70;;
39612;SDS011;25303;48.896;13.342;2022-10-16T12:24:50;3.55;;;0.70;;
39612;SDS011;25303;48.896;13.342;2022-10-16T12:27:33;1.98;;;1.02;;
39612;SDS011;25303;48.896;13.342;2022-10-16T12:30:20;1.17;;;0.73;;
39612;SDS011;25303;48.896;13.342;2022-10-16T12:33:06;1.27;;;0.60;;
39612;SDS011;25303;48.896;13.342;2022-10-16T12:36:05;0.90;;;0.70;;
39612;SDS011;25303;48.896;13.342;2022-10-16T12:38:55;1.10;;;1.00;;
39612;SDS011;25303;48.896;13.342;2022-10-16T12:41:38;1.45;;;0.90;;
39612;SDS011;25303;48.896;13.342;2022-10-16T12:44:22;1.10;;;0.80;;
39612;SDS011;25303;48.896;13.342;2022-10-16T12:47:18;1.10;;;0.90;;
39612;SDS011;25303;48.896;13.342;2022-10-16T12:50:03;1.67;;;1.13;;
39612;SDS011;25303;48.896;13.342;2022-10-16T12:53:17;2.25;;;0.90;;
39612;SDS011;25303;48.896;13.342;2022-10-16T12:56:03;1.88;;;1.20;;
39612;SDS011;25303;48.896;13.342;2022-10-16T12:58:55;3.70;;;1.05;;
39612;SDS011;25303;48.896;13.342;2022-10-16T13:02:03;2.35;;;1.10;;
39612;SDS011;25303;48.896;13.342;2022-10-16T13:05:04;2.45;;;0.70;;
39612;SDS011;25303;48.896;13.342;2022-10-16T13:08:04;1.60;;;1.10;;
39612;SDS011;25303;48.896;13.342;2022-10-16T13:11:03;1.13;;;0.80;;
39612;SDS011;25303;48.896;13.342;2022-10-16T13:13:58;1.20;;;1.00;;
39612;SDS011;25303;48.896;13.342;2022-10-16T13:16:53;1.85;;;0.93;;
39612;SDS011;25303;48.896;13.342;2022-10-16T13:19:44;3.58;;;1.10;;
39612;SDS011;25303;48.896;13.342;2022-10-16T13:22:37;1.88;;;0.70;;
39612;SDS011;25303;48.896;13.342;2022-10-16T13:25:26;3.60;;;0.90;;
39612;SDS011;25303;48.896;13.342;2022-10-16T13:28:19;2.97;;;0.80;;
39612;SDS011;25303;48.896;13.342;2022-10-16T13:31:11;2.10;;;0.80;;
39612;SDS011;25303;48.896;13.342;2022-10-16T13:33:58;2.40;;;0.70;;
39612;SDS011;25303;48.896;13.342;2022-10-16T13:36:43;1.20;;;0.90;;
39612;SDS011;25303;48.896;13.342;2022-10-16T13:39:29;1.38;;;0.90;;
39612;SDS011;25303;48.896;13.342;2022-10-16T13:42:13;0.70;;;0.70;;
39612;SDS011;25303;48.896;13.342;2022-10-16T13:45:18;1.35;;;0.90;;
39612;SDS011;25303;48.896;13.342;2022-10-16T13:48:02;1.05;;;0.80;;
39612;SDS011;25303;48.896;13.342;2022-10-16T13:50:46;1.75;;;0.70;;
39612;SDS011;25303;48.896;13.342;2022-10-16T13:53:30;1.40;;;0.80;;
39612;SDS011;25303;48.896;13.342;2022-10-16T13:56:14;0.90;;;0.70;;
39612;SDS011;25303;48.896;13.342;2022-10-16T13:58:59;1.88;;;0.93;;
39612;SDS011;25303;48.896;13.342;2022-10-16T14:01:44;1.10;;;0.85;;
39612;SDS011;25303;48.896;13.342;2022-10-16T14:04:27;3.55;;;0.90;;
39612;SDS011;25303;48.896;13.342;2022-10-16T14:07:16;1.85;;;1.25;;
39612;SDS011;25303;48.896;13.342;2022-10-16T14:10:06;4.90;;;1.00;;
39612;SDS011;25303;48.896;13.342;2022-10-16T14:13:02;0.80;;;0.77;;
39612;SDS011;25303;48.896;13.342;2022-10-16T14:15:47;1.00;;;0.70;;
39612;SDS011;25303;48.896;13.342;2022-10-16T14:18:35;1.20;;;0.90;;
39612;SDS011;25303;48.896;13.342;2022-10-16T14:21:21;1.17;;;0.85;;
39612;SDS011;25303;48.896;13.342;2022-10-16T14:24:10;1.75;;;0.90;;
39612;SDS011;25303;48.896;13.342;2022-10-16T14:26:53;1.70;;;0.90;;
39612;SDS011;25303;48.896;13.342;2022-10-16T14:29:37;1.33;;;0.90;;
39612;SDS011;25303;48.896;13.342;2022-10-16T14:32:22;1.40;;;1.00;;
39612;SDS011;25303;48.896;13.342;2022-10-16T14:35:20;0.70;;;0.60;;
39612;SDS011;25303;48.896;13.342;2022-10-16T14:38:06;1.20;;;0.98;;
39612;SDS011;25303;48.896;13.342;2022-10-16T14:41:00;1.80;;;0.93;;
39612;SDS011;25303;48.896;13.342;2022-10-16T14:43:44;2.05;;;0.93;;
39612;SDS011;25303;48.896;13.342;2022-10-16T14:46:33;1.42;;;1.08;;
39612;SDS011;25303;48.896;13.342;2022-10-16T14:49:19;2.03;;;0.80;;
39612;SDS011;25303;48.896;13.342;2022-10-16T14:52:07;1.10;;;0.80;;
39612;SDS011;25303;48.896;13.342;2022-10-16T14:54:52;2.17;;;1.00;;
39612;SDS011;25303;48.896;13.342;2022-10-16T14:57:36;1.20;;;0.85;;
39612;SDS011;25303;48.896;13.342;2022-10-16T15:03:04;1.88;;;0.77;;
39612;SDS011;25303;48.896;13.342;2022-10-16T15:05:47;2.97;;;0.80;;
39612;SDS011;25303;48.896;13.342;2022-10-16T15:08:32;2.10;;;0.82;;
39612;SDS011;25303;48.896;13.342;2022-10-16T15:11:15;1.67;;;1.00;;
39612;SDS011;25303;48.896;13.342;2022-10-16T15:14:00;1.70;;;1.15;;
39612;SDS011;25303;48.896;13.342;2022-10-16T15:16:44;1.77;;;1.20;;
39612;SDS011;25303;48.896;13.342;2022-10-16T15:19:28;3.10;;;1.08;;
39612;SDS011;25303;48.896;13.342;2022-10-16T15:22:11;1.90;;;0.80;;
39612;SDS011;25303;48.896;13.342;2022-10-16T15:24:56;1.35;;;0.93;;
39612;SDS011;25303;48.896;13.342;2022-10-16T15:27:38;1.42;;;1.05;;
39612;SDS011;25303;48.896;13.342;2022-10-16T15:30:21;0.90;;;0.70;;
39612;SDS011;25303;48.896;13.342;2022-10-16T15:33:05;0.90;;;0.65;;
39612;SDS011;25303;48.896;13.342;2022-10-16T15:35:54;2.75;;;0.88;;
39612;SDS011;25303;48.896;13.342;2022-10-16T15:38:37;3.75;;;0.98;;
39612;SDS011;25303;48.896;13.342;2022-10-16T15:41:21;4.95;;;0.80;;
39612;SDS011;25303;48.896;13.342;2022-10-16T15:44:05;1.13;;;0.80;;
39612;SDS011;25303;48.896;13.342;2022-10-16T15:46:48;1.92;;;0.82;;
39612;SDS011;25303;48.896;13.342;2022-10-16T15:49:31;3.42;;;1.00;;
39612;SDS011;25303;48.896;13.342;2022-10-16T15:52:15;2.67;;;0.82;;
39612;SDS011;25303;48.896;13.342;2022-10-16T15:54:58;2.15;;;0.80;;
39612;SDS011;25303;48.896;13.342;2022-10-16T15:57:42;3.53;;;1.00;;
39612;SDS011;25303;48.896;13.342;2022-10-16T16:00:36;1.05;;;0.80;;
39612;SDS011;25303;48.896;13.342;2022-10-16T16:03:19;1.20;;;0.93;;
39612;SDS011;25303;48.896;13.342;2022-10-16T16:06:05;2.42;;;1.02;;
39612;SDS011;25303;48.896;13.342;2022-10-16T16:08:50;1.20;;;0.90;;
39612;SDS011;25303;48.896;13.342;2022-10-16T16:11:33;3.25;;;0.80;;
39612;SDS011;25303;48.896;13.342;2022-10-16T16:14:20;1.70;;;0.90;;
39612;SDS011;25303;48.896;13.342;2022-10-16T16:17:03;2.47;;;0.85;;
39612;SDS011;25303;48.896;13.342;2022-10-16T16:19:46;2.05;;;1.00;;
39612;SDS011;25303;48.896;13.342;2022-10-16T16:22:29;1.48;;;0.98;;
39612;SDS011;25303;48.896;13.342;2022-10-16T16:25:12;1.83;;;1.00;;
39612;SDS011;25303;48.896;13.342;2022-10-16T16:27:55;1.65;;;1.05;;
39612;SDS011;25303;48.896;13.342;2022-10-16T16:30:39;2.92;;;0.98;;
39612;SDS011;25303;48.896;13.342;2022-10-16T16:33:22;1.73;;;1.02;;
39612;SDS011;25303;48.896;13.342;2022-10-16T16:36:05;1.52;;;1.00;;
39612;SDS011;25303;48.896;13.342;2022-10-16T16:38:56;2.17;;;0.90;;
39612;SDS011;25303;48.896;13.342;2022-10-16T16:41:39;1.60;;;0.90;;
39612;SDS011;25303;48.896;13.342;2022-10-16T16:44:22;3.30;;;0.82;;
39612;SDS011;25303;48.896;13.342;2022-10-16T16:47:06;3.10;;;1.20;;
39612;SDS011;25303;48.896;13.342;2022-10-16T16:49:49;2.22;;;1.10;;
39612;SDS011;25303;48.896;13.342;2022-10-16T16:52:32;3.17;;;0.90;;